This is the latest recevied weather packets stored in our database for station/object KI5NYZ-13. If no packets are shown the sender has not sent any weather packets the latest 10 day(s).
| Time | Temp. | Humidity | Pressure | Rain* | Wind** | Luminosity | Snow |
|---|---|---|---|---|---|---|---|
| 1777735970 | 13.89° C | 56% | 1023.2 hPa | 0 mm | - | - | - |
| 1777730567 | 10.56° C | 72% | 1024.2 hPa | 0 mm | - | - | - |
| 1777728766 | 9.44° C | 75% | 1024.2 hPa | 0 mm | - | - | - |
| 1777726965 | 8.89° C | 78% | 1024 hPa | 0 mm | - | - | - |
| 1777725165 | 8.33° C | 81% | 1023.9 hPa | 0 mm | - | - | - |
| 1777723363 | 8.33° C | 81% | 1023.8 hPa | 0 mm | - | - | - |
| 1777721562 | 8.33° C | 83% | 1023.6 hPa | 0 mm | - | - | - |
| 1777719761 | 8.89° C | 84% | 1023.1 hPa | 0 mm | - | - | - |
| 1777717960 | 9.44° C | 85% | 1022.7 hPa | 0 mm | - | - | - |
| 1777716159 | 9.44° C | 80% | 1022.6 hPa | 0 mm | - | - | - |
| 1777714358 | 9.44° C | 83% | 1022.3 hPa | 0 mm | - | - | - |
| 1777712557 | 10.56° C | 71% | 1021.8 hPa | 0 mm | - | - | - |
| 1777710756 | 10° C | 71% | 1022.1 hPa | 0 mm | - | - | - |
| 1777708955 | 10° C | 73% | 1022.3 hPa | 0 mm | - | - | - |
| 1777707154 | 10° C | 75% | 1022.5 hPa | 0 mm | - | - | - |
| 1777705353 | 10° C | 74% | 1022.5 hPa | 0 mm | - | - | - |
| 1777703552 | 10° C | 71% | 1022.3 hPa | 0 mm | - | - | - |
| 1777701751 | 10.56° C | 73% | 1022.4 hPa | 0 mm | - | - | - |
| 1777699950 | 10.56° C | 71% | 1022.4 hPa | 0 mm | - | - | - |
| 1777696349 | 10.56° C | 77% | 1021.4 hPa | 0 mm | - | - | - |
| 1777694547 | 11.11° C | 72% | 1021 hPa | 0 mm | - | - | - |
| 1777692746 | 11.11° C | 69% | 1020.5 hPa | 0 mm | - | - | - |
| 1777690945 | 11.67° C | 59% | 1019.4 hPa | 0 mm | - | - | - |
| 1777689144 | 12.78° C | 53% | 1018.6 hPa | 0 mm | - | - | - |
| 1777687343 | 12.78° C | 50% | 1018.3 hPa | 0 mm | - | - | - |
* Rain latest hour (hover to see other rain measurements)
** Current wind speed in m/s (hover to see current wind gust speed)